createdAt,value
2023-04-18T00:02:17.368Z,6.20
2023-04-18T00:04:50.593Z,8.10
2023-04-18T00:07:19.025Z,8.20
2023-04-18T00:09:46.938Z,7.00
2023-04-18T00:12:15.703Z,5.70
2023-04-18T00:14:43.856Z,6.60
2023-04-18T00:17:13.640Z,5.90
2023-04-18T00:19:43.514Z,5.50
2023-04-18T00:22:12.003Z,5.40
2023-04-18T00:24:40.395Z,5.10
2023-04-18T00:27:08.576Z,5.10
2023-04-18T00:29:36.524Z,4.90
2023-04-18T00:32:04.506Z,5.20
2023-04-18T00:34:32.565Z,4.90
2023-04-18T00:37:01.006Z,4.90
2023-04-18T00:39:29.013Z,5.00
2023-04-18T00:41:57.158Z,4.90
2023-04-18T00:44:25.205Z,4.90
2023-04-18T00:46:53.225Z,4.70
2023-04-18T00:49:21.843Z,4.80
2023-04-18T00:51:50.255Z,4.80
2023-04-18T00:54:18.802Z,5.60
2023-04-18T00:56:47.043Z,5.70
2023-04-18T00:59:16.659Z,4.90
2023-04-18T01:01:45.333Z,5.30
2023-04-18T01:04:14.237Z,5.90
2023-04-18T01:06:44.208Z,5.50
2023-04-18T01:09:14.146Z,5.30
2023-04-18T01:11:42.124Z,5.90
2023-04-18T01:14:10.619Z,5.50
2023-04-18T01:16:38.990Z,6.70
2023-04-18T01:19:07.124Z,5.20
2023-04-18T01:21:37.462Z,5.50
2023-04-18T01:24:12.292Z,4.70
2023-04-18T01:26:47.771Z,5.80
2023-04-18T01:29:16.007Z,5.00
2023-04-18T01:31:44.225Z,6.70
2023-04-18T01:34:12.606Z,5.30
2023-04-18T01:36:43.016Z,5.30
2023-04-18T01:39:13.333Z,5.10
2023-04-18T01:41:42.126Z,5.40
2023-04-18T01:44:11.324Z,5.30
2023-04-18T01:46:40.887Z,4.60
2023-04-18T01:49:09.978Z,4.40
2023-04-18T01:51:41.161Z,5.50
2023-04-18T01:54:09.328Z,5.10
2023-04-18T01:56:37.398Z,5.40
2023-04-18T01:59:05.695Z,3.80
2023-04-18T02:01:33.847Z,4.30
2023-04-18T02:04:01.980Z,4.20
2023-04-18T02:06:31.125Z,5.00
2023-04-18T02:09:01.155Z,4.50
2023-04-18T02:11:29.980Z,5.20
2023-04-18T02:13:59.713Z,4.30
2023-04-18T02:16:28.093Z,4.80
2023-04-18T02:18:56.660Z,4.40
2023-04-18T02:21:24.852Z,4.40
2023-04-18T02:23:53.611Z,4.70
2023-04-18T02:26:23.161Z,4.70
2023-04-18T02:28:51.294Z,5.80
2023-04-18T02:31:19.524Z,4.70
2023-04-18T02:33:48.232Z,4.80
2023-04-18T02:36:16.877Z,4.40
2023-04-18T02:38:45.657Z,4.40
2023-04-18T02:41:17.630Z,3.80
2023-04-18T02:43:46.060Z,5.40
2023-04-18T02:46:15.585Z,4.30
2023-04-18T02:48:44.491Z,4.40
2023-04-18T02:51:13.653Z,4.90
2023-04-18T02:53:41.754Z,4.30
2023-04-18T02:56:10.041Z,4.40
2023-04-18T02:58:56.639Z,4.70
2023-04-18T03:01:44.893Z,4.10
2023-04-18T03:04:16.228Z,4.10
2023-04-18T03:06:48.824Z,4.20
2023-04-18T03:09:17.539Z,4.00
2023-04-18T03:11:51.672Z,3.60
2023-04-18T03:14:21.867Z,3.90
2023-04-18T03:16:55.227Z,3.80
2023-04-18T03:19:26.900Z,5.70
2023-04-18T03:21:56.269Z,4.00
2023-04-18T03:24:25.283Z,3.80
2023-04-18T03:26:54.420Z,3.50
2023-04-18T03:29:24.545Z,4.10
2023-04-18T03:31:52.536Z,3.80
2023-04-18T03:34:20.849Z,3.90
2023-04-18T03:36:49.312Z,3.40
2023-04-18T03:39:17.942Z,3.60
2023-04-18T03:41:46.541Z,3.90
2023-04-18T03:44:15.860Z,4.20
2023-04-18T03:46:44.344Z,4.50
2023-04-18T03:49:13.065Z,3.50
2023-04-18T03:51:47.917Z,4.80
2023-04-18T03:54:16.976Z,3.70
2023-04-18T03:56:45.490Z,4.20
2023-04-18T03:59:15.578Z,4.30
2023-04-18T04:01:46.353Z,4.20
2023-04-18T04:04:15.724Z,4.30
2023-04-18T04:06:44.385Z,4.20
2023-04-18T04:09:12.686Z,3.80
2023-04-18T04:11:41.041Z,3.50
2023-04-18T04:14:11.047Z,3.90
2023-04-18T04:16:42.522Z,4.00
2023-04-18T04:19:11.592Z,3.20
2023-04-18T04:21:44.753Z,3.60
2023-04-18T04:24:15.184Z,3.70
2023-04-18T04:26:46.813Z,3.30
2023-04-18T04:29:19.258Z,3.30
2023-04-18T04:31:48.794Z,3.50
2023-04-18T04:34:29.702Z,3.60
2023-04-18T04:36:58.112Z,4.20
2023-04-18T04:39:26.596Z,3.20
2023-04-18T04:42:25.510Z,3.30
2023-04-18T04:45:02.698Z,3.80
2023-04-18T04:47:31.248Z,3.60
2023-04-18T04:49:59.983Z,3.70
2023-04-18T04:52:28.132Z,3.70
2023-04-18T04:54:56.268Z,3.60
2023-04-18T04:57:24.665Z,4.00
2023-04-18T04:59:53.531Z,4.60
2023-04-18T05:02:23.624Z,3.60
2023-04-18T05:04:51.785Z,3.40
2023-04-18T05:07:19.827Z,3.30
2023-04-18T05:09:48.119Z,3.80
2023-04-18T05:12:16.241Z,2.90
2023-04-18T05:14:44.353Z,3.10
2023-04-18T05:17:12.610Z,2.40
2023-04-18T05:19:40.911Z,2.80
2023-04-18T05:22:09.065Z,2.90
2023-04-18T05:24:41.388Z,4.00
2023-04-18T05:27:09.975Z,2.70
2023-04-18T05:29:38.264Z,3.50
2023-04-18T05:32:07.002Z,3.00
2023-04-18T05:34:38.761Z,3.00
2023-04-18T05:37:07.385Z,3.20
2023-04-18T05:39:35.904Z,3.10
2023-04-18T05:42:04.361Z,2.80
2023-04-18T05:44:32.646Z,3.10
2023-04-18T05:47:00.701Z,2.80
2023-04-18T05:49:28.772Z,3.40
2023-04-18T05:51:57.833Z,3.00
2023-04-18T05:54:26.062Z,3.10
2023-04-18T05:56:54.564Z,3.10
2023-04-18T05:59:22.998Z,2.70
2023-04-18T06:01:51.860Z,3.60
2023-04-18T06:04:21.196Z,2.80
2023-04-18T06:06:49.517Z,3.10
2023-04-18T06:09:17.603Z,11.30
2023-04-18T06:11:45.554Z,40.20
2023-04-18T06:14:13.745Z,14.40
2023-04-18T06:16:42.245Z,11.20
2023-04-18T06:19:10.460Z,27.10
2023-04-18T06:21:39.893Z,22.80
2023-04-18T06:24:08.161Z,9.50
2023-04-18T06:26:36.140Z,5.30
2023-04-18T06:29:04.161Z,4.60
2023-04-18T06:31:32.269Z,3.80
2023-04-18T06:34:00.497Z,30.70
2023-04-18T06:36:28.687Z,10.90
2023-04-18T06:38:56.737Z,6.10
2023-04-18T06:41:24.938Z,14.20
2023-04-18T06:44:03.333Z,4.00
2023-04-18T06:46:32.756Z,7.20
2023-04-18T06:49:01.098Z,3.80
2023-04-18T06:51:32.883Z,3.60
2023-04-18T06:54:01.778Z,6.80
2023-04-18T06:56:30.847Z,3.40
2023-04-18T06:58:59.006Z,9.10
2023-04-18T07:01:27.033Z,7.80
2023-04-18T07:03:55.381Z,3.80
2023-04-18T07:06:23.517Z,3.10
2023-04-18T07:08:54.478Z,3.40
2023-04-18T07:11:26.119Z,5.90
2023-04-18T07:13:54.406Z,5.00
2023-04-18T07:16:22.546Z,4.60
2023-04-18T07:18:51.855Z,4.40
2023-04-18T07:21:20.057Z,3.30
2023-04-18T07:23:48.029Z,6.80
2023-04-18T07:26:16.578Z,3.50
2023-04-18T07:28:44.811Z,3.40
2023-04-18T07:31:14.538Z,4.20
2023-04-18T07:33:43.684Z,3.10
2023-04-18T07:36:11.854Z,2.80
2023-04-18T07:38:40.243Z,3.00
2023-04-18T07:41:08.433Z,2.60
2023-04-18T07:43:38.740Z,2.60
2023-04-18T07:46:07.264Z,2.30
2023-04-18T07:48:35.465Z,2.10
2023-04-18T07:51:04.009Z,2.60
2023-04-18T07:53:34.892Z,2.90
2023-04-18T07:56:03.103Z,3.80
2023-04-18T07:58:31.237Z,3.40
2023-04-18T08:00:59.250Z,3.40
2023-04-18T08:03:27.970Z,3.00
2023-04-18T08:05:56.784Z,2.50
2023-04-18T08:08:24.793Z,4.60
2023-04-18T08:10:52.818Z,3.80
2023-04-18T08:13:21.458Z,2.40
2023-04-18T08:15:49.453Z,5.90
2023-04-18T08:18:17.773Z,2.80
2023-04-18T08:20:46.122Z,2.60
2023-04-18T08:23:14.987Z,2.60
2023-04-18T08:25:43.260Z,2.10
2023-04-18T08:28:11.402Z,2.40
2023-04-18T08:30:39.666Z,2.60
2023-04-18T08:33:07.751Z,2.30
2023-04-18T08:35:36.105Z,2.90
2023-04-18T08:38:04.421Z,2.40
2023-04-18T08:40:32.687Z,2.50
2023-04-18T08:43:18.513Z,2.20
2023-04-18T08:45:46.637Z,2.40
2023-04-18T08:48:15.326Z,2.70
2023-04-18T08:51:02.418Z,2.50
2023-04-18T08:53:33.528Z,2.30
2023-04-18T08:56:02.988Z,2.60
2023-04-18T08:58:33.912Z,2.50
2023-04-18T09:01:02.471Z,2.70
2023-04-18T09:03:43.354Z,2.60
2023-04-18T09:06:30.534Z,2.50
2023-04-18T09:09:15.994Z,1.70
2023-04-18T09:12:05.864Z,2.30
2023-04-18T09:14:36.904Z,2.40
2023-04-18T09:17:06.531Z,2.20
2023-04-18T09:19:34.885Z,2.50
2023-04-18T09:22:04.807Z,1.90
2023-04-18T09:24:34.482Z,1.90
2023-04-18T09:27:04.110Z,1.50
2023-04-18T09:29:52.010Z,2.80
2023-04-18T09:32:25.565Z,2.00
2023-04-18T09:35:04.093Z,1.80
2023-04-18T09:37:32.868Z,2.20
2023-04-18T09:40:00.956Z,2.30
2023-04-18T09:42:35.992Z,1.60
2023-04-18T09:45:08.445Z,2.10
2023-04-18T09:47:37.660Z,1.70
2023-04-18T09:50:07.584Z,2.00
2023-04-18T09:52:39.854Z,1.50
2023-04-18T09:55:09.044Z,2.80
2023-04-18T09:57:40.947Z,2.00
2023-04-18T10:00:17.475Z,2.10
2023-04-18T10:03:10.100Z,2.10
2023-04-18T10:05:39.471Z,2.20
2023-04-18T10:08:08.132Z,2.30
2023-04-18T10:10:38.805Z,1.70
2023-04-18T10:13:11.696Z,1.90
2023-04-18T10:15:41.759Z,2.30
2023-04-18T10:18:14.784Z,2.10
2023-04-18T10:20:43.086Z,2.20
2023-04-18T10:23:35.112Z,1.70
2023-04-18T10:26:05.187Z,2.00
2023-04-18T10:28:56.837Z,1.80
2023-04-18T10:31:28.756Z,2.70
2023-04-18T10:36:29.327Z,6.60
2023-04-18T10:39:33.668Z,2.50
2023-04-18T10:42:02.823Z,2.40
2023-04-18T10:44:30.799Z,5.60
2023-04-18T10:46:58.820Z,4.40
2023-04-18T10:49:30.252Z,2.90
2023-04-18T10:52:01.401Z,8.70
2023-04-18T10:54:31.186Z,2.50
2023-04-18T10:57:00.333Z,2.10
2023-04-18T10:59:29.022Z,3.30
2023-04-18T11:02:18.187Z,2.60
2023-04-18T11:04:53.328Z,2.40
2023-04-18T11:07:38.541Z,2.70
2023-04-18T11:10:07.621Z,2.00
2023-04-18T11:12:36.722Z,3.60
2023-04-18T11:15:12.673Z,2.60
2023-04-18T11:17:41.334Z,2.30
2023-04-18T11:20:14.461Z,2.70
2023-04-18T11:22:45.054Z,2.60
2023-04-18T11:25:13.485Z,2.00
2023-04-18T11:30:38.721Z,2.40
2023-04-18T11:33:07.907Z,2.20
2023-04-18T11:35:38.990Z,2.90
2023-04-18T11:38:13.369Z,2.20
2023-04-18T11:40:57.669Z,2.20
2023-04-18T11:43:26.349Z,2.80
2023-04-18T11:45:55.471Z,2.80
2023-04-18T11:48:26.901Z,2.70
2023-04-18T11:50:55.014Z,2.60
2023-04-18T11:53:33.636Z,2.10
2023-04-18T11:56:05.397Z,2.30
2023-04-18T11:58:34.344Z,3.10
2023-04-18T12:01:21.752Z,2.80
2023-04-18T12:04:02.454Z,2.90
2023-04-18T12:06:49.599Z,2.60
2023-04-18T12:09:18.172Z,2.50
2023-04-18T12:11:58.773Z,2.00
2023-04-18T12:14:27.326Z,2.70
2023-04-18T12:16:55.611Z,2.10
2023-04-18T12:19:30.181Z,2.10
2023-04-18T12:22:02.177Z,2.80
2023-04-18T12:24:30.183Z,2.70
2023-04-18T12:27:01.381Z,2.50
2023-04-18T12:29:30.070Z,2.70
2023-04-18T12:31:59.226Z,2.00
2023-04-18T12:34:27.554Z,2.70
2023-04-18T12:36:55.796Z,2.40
2023-04-18T12:39:23.796Z,2.10
2023-04-18T12:41:52.272Z,2.50
2023-04-18T12:44:20.984Z,2.60
2023-04-18T12:46:49.119Z,2.30
2023-04-18T12:49:17.494Z,5.20
2023-04-18T12:51:45.808Z,2.90
2023-04-18T12:54:14.354Z,2.60
2023-04-18T12:56:42.747Z,2.20
2023-04-18T12:59:11.065Z,2.70
2023-04-18T13:01:39.166Z,3.30
2023-04-18T13:04:12.265Z,2.00
2023-04-18T13:06:41.670Z,3.10
2023-04-18T13:09:10.611Z,2.40
2023-04-18T13:11:38.655Z,2.90
2023-04-18T13:14:06.825Z,3.10
2023-04-18T13:16:35.468Z,3.30
2023-04-18T13:19:03.544Z,3.40
2023-04-18T13:21:31.919Z,3.00
2023-04-18T13:24:01.050Z,3.40
2023-04-18T13:26:29.160Z,2.80
2023-04-18T13:28:57.106Z,3.00
2023-04-18T13:31:25.901Z,3.50
2023-04-18T13:33:53.878Z,3.40
2023-04-18T13:36:22.004Z,2.60
2023-04-18T13:38:51.484Z,2.50
2023-04-18T13:41:19.560Z,2.60
2023-04-18T13:43:47.595Z,3.40
2023-04-18T13:46:15.913Z,2.60
2023-04-18T13:48:44.119Z,4.00
2023-04-18T13:51:12.257Z,4.40
2023-04-18T13:53:40.453Z,2.70
2023-04-18T13:56:08.524Z,3.00
2023-04-18T13:58:36.651Z,2.70
2023-04-18T14:01:04.729Z,2.80
2023-04-18T14:03:34.697Z,3.50
2023-04-18T14:06:03.978Z,2.70
2023-04-18T14:08:32.291Z,2.50
2023-04-18T14:11:00.285Z,2.00
2023-04-18T14:13:28.466Z,2.50
2023-04-18T14:16:00.422Z,2.80
2023-04-18T14:18:28.630Z,2.80
2023-04-18T14:20:56.618Z,2.40
2023-04-18T14:23:26.170Z,3.20
2023-04-18T14:25:54.357Z,2.80
2023-04-18T14:28:24.971Z,2.40
2023-04-18T14:30:55.445Z,2.50
2023-04-18T14:33:24.190Z,3.70
2023-04-18T14:35:52.314Z,3.10
2023-04-18T14:38:20.637Z,3.40
2023-04-18T14:40:48.964Z,2.80
2023-04-18T14:43:17.224Z,3.30
2023-04-18T14:45:45.461Z,3.60
2023-04-18T14:48:13.656Z,3.00
2023-04-18T14:50:41.794Z,3.40
2023-04-18T14:53:10.244Z,3.50
2023-04-18T14:55:38.650Z,3.00
2023-04-18T14:58:06.693Z,3.30
2023-04-18T15:00:36.006Z,4.00
2023-04-18T15:03:05.761Z,3.10
2023-04-18T15:05:35.071Z,2.90
2023-04-18T15:08:04.443Z,2.50
2023-04-18T15:10:32.883Z,3.40
2023-04-18T15:13:01.111Z,3.60
2023-04-18T15:15:30.745Z,3.00
2023-04-18T15:17:58.882Z,3.40
2023-04-18T15:20:27.128Z,3.00
2023-04-18T15:22:55.530Z,3.20
2023-04-18T15:25:25.813Z,2.80
2023-04-18T15:27:53.788Z,3.30
2023-04-18T15:30:22.296Z,2.90
2023-04-18T15:32:50.679Z,3.50
2023-04-18T15:35:18.703Z,2.90
2023-04-18T15:37:49.347Z,3.50
2023-04-18T15:40:18.484Z,3.10
2023-04-18T15:42:47.743Z,2.90
2023-04-18T15:45:15.735Z,3.10
2023-04-18T15:47:44.309Z,3.50
2023-04-18T15:50:12.390Z,2.80
2023-04-18T15:52:41.514Z,3.20
2023-04-18T15:55:15.487Z,3.30
2023-04-18T15:57:44.850Z,3.10
2023-04-18T16:00:16.422Z,3.20
2023-04-18T16:02:45.133Z,3.60
2023-04-18T16:05:14.037Z,3.50
2023-04-18T16:07:43.127Z,3.50
2023-04-18T16:10:12.874Z,3.40
2023-04-18T16:12:41.563Z,3.60
2023-04-18T16:15:09.976Z,3.30
2023-04-18T16:17:38.502Z,3.20
2023-04-18T16:20:08.717Z,4.10
2023-04-18T16:22:37.478Z,3.50
2023-04-18T16:25:05.731Z,4.40
2023-04-18T16:27:34.029Z,3.60
2023-04-18T16:30:02.912Z,3.80
2023-04-18T16:32:31.110Z,3.20
2023-04-18T16:34:59.330Z,3.70
2023-04-18T16:37:27.554Z,3.40
2023-04-18T16:39:55.760Z,3.70
2023-04-18T16:42:27.273Z,4.10
2023-04-18T16:44:55.748Z,3.40
2023-04-18T16:47:26.383Z,4.00
2023-04-18T16:49:59.622Z,3.90
2023-04-18T16:52:41.892Z,3.70
2023-04-18T16:55:15.808Z,3.60
2023-04-18T16:57:43.806Z,3.80
2023-04-18T17:00:15.810Z,3.40
2023-04-18T17:05:13.773Z,4.30
2023-04-18T17:07:41.745Z,3.80
2023-04-18T17:10:10.384Z,3.80
2023-04-18T17:12:38.679Z,4.20
2023-04-18T17:15:07.308Z,4.10
2023-04-18T17:17:36.079Z,4.00
2023-04-18T17:20:07.039Z,4.00
2023-04-18T17:22:35.713Z,4.20
2023-04-18T17:25:04.372Z,3.50
2023-04-18T17:27:32.439Z,3.90
2023-04-18T17:30:00.512Z,4.20
2023-04-18T17:32:28.974Z,3.40
2023-04-18T17:34:57.441Z,3.70
2023-04-18T17:37:26.192Z,3.70
2023-04-18T17:40:05.353Z,4.40
2023-04-18T17:42:38.734Z,3.60
2023-04-18T17:45:08.917Z,3.70
2023-04-18T17:47:37.012Z,3.50
2023-04-18T17:50:05.515Z,3.90
2023-04-18T17:52:33.651Z,5.30
2023-04-18T17:55:02.491Z,4.10
2023-04-18T17:57:30.943Z,4.30
2023-04-18T17:59:59.113Z,4.30
2023-04-18T18:02:29.174Z,3.90
2023-04-18T18:04:57.718Z,4.70
2023-04-18T18:07:31.177Z,4.60
2023-04-18T18:10:02.141Z,4.10
2023-04-18T18:12:31.683Z,5.00
2023-04-18T18:15:02.987Z,4.90
2023-04-18T18:17:31.293Z,6.30
2023-04-18T18:20:00.509Z,4.50
2023-04-18T18:22:29.340Z,4.80
2023-04-18T18:24:57.661Z,4.60
2023-04-18T18:27:25.984Z,4.70
2023-04-18T18:29:54.168Z,4.40
2023-04-18T18:32:26.958Z,3.80
2023-04-18T18:34:55.237Z,4.20
2023-04-18T18:37:26.783Z,4.00
2023-04-18T18:39:56.331Z,3.90
2023-04-18T18:42:24.596Z,3.80
2023-04-18T18:44:55.790Z,4.60
2023-04-18T18:47:26.914Z,4.00
2023-04-18T18:49:55.222Z,3.80
2023-04-18T18:52:28.408Z,5.30
2023-04-18T18:54:56.748Z,4.60
2023-04-18T18:57:27.806Z,4.30
2023-04-18T18:59:56.184Z,3.70
2023-04-18T19:02:26.000Z,4.20
2023-04-18T19:04:54.364Z,4.40
2023-04-18T19:07:25.504Z,3.90
2023-04-18T19:09:55.286Z,5.10
2023-04-18T19:12:28.433Z,4.20
2023-04-18T19:14:56.503Z,4.00
2023-04-18T19:17:24.909Z,5.00
2023-04-18T19:19:53.490Z,4.60
2023-04-18T19:22:22.837Z,5.60
2023-04-18T19:24:54.358Z,4.90
2023-04-18T19:27:23.105Z,5.10
2023-04-18T19:29:53.198Z,5.20
2023-04-18T19:32:26.702Z,4.90
2023-04-18T19:34:54.803Z,4.60
2023-04-18T19:40:26.728Z,5.00
2023-04-18T19:42:54.846Z,6.30
2023-04-18T19:45:24.485Z,4.90
2023-04-18T19:47:52.476Z,6.50
2023-04-18T19:50:20.438Z,6.50
2023-04-18T19:52:51.703Z,6.30
2023-04-18T19:55:22.907Z,6.10
2023-04-18T19:57:56.156Z,5.40
2023-04-18T20:00:24.404Z,5.50
2023-04-18T20:02:53.676Z,5.20
2023-04-18T20:05:43.090Z,5.80
2023-04-18T20:08:11.519Z,6.40
2023-04-18T20:10:40.672Z,6.40
2023-04-18T20:13:22.830Z,7.10
2023-04-18T20:15:53.510Z,6.80
2023-04-18T20:18:24.071Z,6.30
2023-04-18T20:20:52.153Z,7.30
2023-04-18T20:23:20.128Z,7.00
2023-04-18T20:25:48.179Z,6.50
2023-04-18T20:28:16.354Z,7.10
2023-04-18T20:30:45.758Z,6.80
2023-04-18T20:33:14.143Z,6.40
2023-04-18T20:35:42.278Z,6.50
2023-04-18T20:38:12.417Z,6.10
2023-04-18T20:40:40.574Z,6.80
2023-04-18T20:43:08.800Z,6.00
2023-04-18T20:45:42.902Z,6.80
2023-04-18T20:48:10.943Z,6.10
2023-04-18T20:50:43.998Z,6.20
2023-04-18T20:53:12.091Z,6.00
2023-04-18T20:55:40.083Z,5.90
2023-04-18T20:58:07.965Z,6.00
2023-04-18T21:00:36.046Z,5.60
2023-04-18T21:03:04.168Z,6.40
2023-04-18T21:05:32.655Z,6.30
2023-04-18T21:08:00.787Z,5.60
2023-04-18T21:10:29.098Z,6.10
2023-04-18T21:12:57.144Z,5.90
2023-04-18T21:15:25.136Z,5.60
2023-04-18T21:17:53.338Z,5.90
2023-04-18T21:20:21.602Z,6.70
2023-04-18T21:22:49.660Z,5.60
2023-04-18T21:25:18.730Z,6.00
2023-04-18T21:27:47.032Z,6.50
2023-04-18T21:30:15.309Z,6.20
2023-04-18T21:32:43.383Z,7.00
2023-04-18T21:35:11.946Z,5.90
2023-04-18T21:37:40.262Z,6.40
2023-04-18T21:40:08.646Z,5.70
2023-04-18T21:42:37.147Z,6.00
2023-04-18T21:45:06.219Z,6.10
2023-04-18T21:47:34.371Z,6.30
2023-04-18T21:50:03.371Z,5.20
2023-04-18T21:52:31.447Z,4.40
2023-04-18T21:54:59.728Z,6.20
2023-04-18T21:57:27.913Z,6.30
2023-04-18T21:59:57.696Z,5.70
2023-04-18T22:02:27.121Z,6.60
2023-04-18T22:04:55.436Z,6.10
2023-04-18T22:07:24.701Z,7.50
2023-04-18T22:09:52.796Z,10.40
2023-04-18T22:12:20.874Z,8.80
2023-04-18T22:14:49.158Z,8.20
2023-04-18T22:17:17.257Z,9.80
2023-04-18T22:19:45.625Z,9.00
2023-04-18T22:22:13.628Z,8.80
2023-04-18T22:24:41.661Z,9.30
2023-04-18T22:27:09.695Z,9.40
2023-04-18T22:29:37.695Z,11.20
2023-04-18T22:32:05.855Z,9.50
2023-04-18T22:34:33.902Z,11.20
2023-04-18T22:37:02.123Z,9.10
2023-04-18T22:39:31.303Z,9.80
2023-04-18T22:41:59.462Z,10.00
2023-04-18T22:44:27.458Z,9.10
2023-04-18T22:46:56.204Z,10.40
2023-04-18T22:49:24.181Z,11.20
2023-04-18T22:51:54.568Z,10.80
2023-04-18T22:54:23.012Z,11.60
2023-04-18T22:56:51.167Z,11.20
2023-04-18T22:59:19.319Z,11.40
2023-04-18T23:01:47.276Z,11.90
2023-04-18T23:04:15.732Z,11.70
2023-04-18T23:06:44.403Z,10.80
2023-04-18T23:09:12.322Z,11.30
2023-04-18T23:11:40.333Z,10.20
2023-04-18T23:14:10.889Z,10.60
2023-04-18T23:16:38.938Z,11.00
2023-04-18T23:19:06.970Z,10.30
2023-04-18T23:21:34.982Z,9.80
2023-04-18T23:24:02.918Z,8.90
2023-04-18T23:26:31.056Z,8.60
2023-04-18T23:28:59.232Z,9.10
2023-04-18T23:31:27.224Z,8.40
2023-04-18T23:33:56.532Z,7.60
2023-04-18T23:36:24.609Z,8.90
2023-04-18T23:38:52.655Z,8.40
2023-04-18T23:41:20.870Z,8.00
2023-04-18T23:43:48.827Z,7.90
2023-04-18T23:46:17.023Z,8.40
2023-04-18T23:48:45.033Z,7.90
2023-04-18T23:51:13.141Z,8.30
2023-04-18T23:53:41.104Z,8.10
2023-04-18T23:56:09.077Z,7.10
2023-04-18T23:58:37.240Z,7.40
